Home > Products > Valid Products > TAF

000
FTUS46 KSGX 241100
TAFPSP
TAF
KPSP 241134Z 2412/2512 33007KT P6SM SCT200
     FM241900 04008KT P6SM SCT200
     FM250200 32007KT P6SM SKC=



000
FTUS46 KSGX 241100
TAFCRQ
TAF
KCRQ 241134Z 2412/2512 VRB03KT P6SM SCT200
     FM242000 27007KT P6SM SCT200
     FM250100 VRB04KT P6SM SKC WS015/08025KT
     FM250700 08007KT P6SM SKC=



000
FTUS46 KSGX 241100
TAFONT
TAF
KONT 241134Z 2412/2518 01003KT P6SM SCT200
     FM241700 04015G25KT P6SM SCT200
     FM250300 VRB06KT P6SM SKC WS015/06030KT
     FM250900 VRB05KT P6SM SKC=



000
FTUS46 KSGX 241100
TAFSAN
TAF
KSAN 241134Z 2412/2518 VRB03KT P6SM SCT200
     FM242000 29009KT P6SM SCT200
     FM250200 VRB04KT P6SM SKC WS020/07025KT
     FM250700 VRB03KT P6SM SKC=



000
FTUS46 KSGX 241100
TAFSNA
TAF
KSNA 241134Z 2412/2512 VRB04KT P6SM SCT200
     FM241700 06012G20KT P6SM SCT200
     FM250100 VRB04KT P6SM SKC WS015/07025KT=



000
FTUS46 KSGX 241100
TAFTRM
TAF
KTRM 241134Z 2412/2512 31005KT P6SM SCT200
     FM241900 33011KT P6SM SCT200
     FM250100 34005KT P6SM SKC=



000
FTUS46 KSGX 240900 AAA
TAFSAN
TAF AMD
KSAN 240905Z 2409/2512 VRB03KT P6SM SCT250
     FM242000 30009KT P6SM FEW250
     FM250400 VRB03KT P6SM SKC WS020/09025KT=



000
FTUS46 KSGX 240500
TAFSNA
TAF
KSNA 240535Z 2406/2506 VRB03KT P6SM FEW250
     FM241700 06010G20KT P6SM SKC
     FM250400 VRB03KT P6SM SKC WS020/09025KT=



000
FTUS46 KSGX 240500
TAFPSP
TAF
KPSP 240535Z 2406/2506 36009KT P6SM FEW250
     FM242100 09007KT P6SM FEW250
     FM250200 VRB03KT P6SM SKC=



000
FTUS46 KSGX 240500
TAFCRQ
TAF
KCRQ 240535Z 2406/2506 08005KT P6SM FEW250
     FM241900 27007KT P6SM SKC
     FM250400 VRB03KT P6SM SKC WS020/09025KT=



000
FTUS46 KSGX 240500
TAFONT
TAF
KONT 240535Z 2406/2512 05007KT P6SM FEW250
     FM241800 04015G25KT P6SM FEW250
     FM250300 05008KT P6SM SKC WS020/09030KT=



000
FTUS46 KSGX 240500
TAFSAN
TAF
KSAN 240535Z 2406/2512 VRB03KT P6SM FEW250
     FM242000 30009KT P6SM FEW250
     FM250400 VRB03KT P6SM SKC WS020/09025KT=



000
FTUS46 KSGX 240500
TAFTRM
TAF
KTRM 240535Z 2406/2506 31009KT P6SM FEW250=



000
FTUS46 KSGX 240300 AAA
TAFSAN
TAF AMD
KSAN 240326Z 2403/2506 VRB03KT P6SM FEW250
     FM242000 30009KT P6SM FEW250
     FM250300 VRB03KT P6SM SKC WS020/08025KT=



000
FTUS46 KSGX 240300 AAA
TAFSAN
TAF AMD
KSAN 240326Z 2403/2506 VRB03KT P6SM FEW250
     FM242000 30009KT P6SM FEW250
     FM250300 VRB03KT P6SM SKC WS020/08025KT=



000
FTUS46 KSGX 240000 CCA
TAFSNA
TAF COR
KSNA 240000Z 2400/2424 36006KT P6SM FEW250 WS015/04025KT
     FM240300 VRB03KT P6SM FEW250
     FM241700 06010G20KT P6SM SKC=



000
FTUS46 KSGX 232300
TAFTRM
TAF
KTRM 232330Z 2400/2424 31008KT P6SM FEW250=



000
FTUS46 KSGX 232300
TAFPSP
TAF
KPSP 232330Z 2400/2424 36009KT P6SM FEW250
     FM242100 06009KT P6SM FEW250=



000
FTUS46 KSGX 232300
TAFONT
TAF
KONT 232330Z 2400/2506 05015G30KT P6SM FEW250
     FM240200 05007KT P6SM FEW250
     FM241800 05015G25KT P6SM FEW250
     FM250300 05007KT P6SM SKC=



000
FTUS46 KSGX 232300
TAFSNA
TAF
KSNA 232330Z 2400/2424 06006KT P6SM FEW250 WS015/04025KT
     FM241700 06010G20KT P6SM SKC=



000
FTUS46 KSGX 232300
TAFCRQ
TAF
KCRQ 232330Z 2400/2424 08005KT P6SM FEW250
     FM241900 27007KT P6SM SKC=



000
FTUS46 KSGX 232300
TAFSAN
TAF
KSAN 232330Z 2400/2506 VRB04KT P6SM FEW250
     FM242000 30009KT P6SM FEW250
     FM250300 VRB03KT P6SM SKC=



000
FTUS46 KSGX 232100 AAA
TAFSAN
TAF AMD
KSAN 232128Z 2321/2424 31009KT P6SM SCT250
     FM240100 VRB04KT P6SM FEW250
     FM242000 30009KT P6SM FEW250=



000
FTUS46 KSGX 232100 AAA
TAFSAN
TAF AMD
KSAN 232128Z 2321/2424 31009KT P6SM SCT250
     FM240100 VRB04KT P6SM FEW250
     FM242000 30009KT P6SM FEW250=



000
FTUS46 KSGX 231900 AAA
TAFSNA
TAF AMD
KSNA 232000Z 2320/2418 03020G30KT P6SM BKN250
     FM232200 04012G22KT P6SM SCT250
     FM240000 VRB06KT P6SM FEW250
     FM240300 VRB05KT P6SM FEW250 WS015/04025KT
     FM241300 VRB04KT P6SM FEW250=



000
FTUS46 KSGX 231700
TAFSAN
TAF
KSAN 231720Z 2318/2424 VRB05KT P6SM BKN250 WS015/01025KT
     FM232000 30009KT P6SM SCT250
     FM240100 VRB04KT P6SM FEW250
     FM242000 30009KT P6SM FEW250=



000
FTUS46 KSGX 231700
TAFPSP
TAF
KPSP 231720Z 2318/2418 35010G20KT P6SM SCT250
     FM232100 35008KT P6SM SCT250
     FM232300 VRB06KT P6SM FEW250=



000
FTUS46 KSGX 231700
TAFTRM
TAF
KTRM 231720Z 2318/2418 32018G30KT 5SM BLDU SCT250
     FM232100 01015G25KT 5SM BLDU SCT250
     FM240000 VRB06KT P6SM FEW250=



000
FTUS46 KSGX 231700
TAFONT
TAF
KONT 231720Z 2318/2424 04020G40KT P6SM BKN250
     FM232000 04015G25KT P6SM SCT250
     FM232300 04010G20KT P6SM FEW250
     FM240100 05007KT P6SM FEW250=



000
FTUS46 KSGX 231700
TAFSNA
TAF
KSNA 231720Z 2318/2418 05015G25KT P6SM BKN250
     FM232000 05010G20KT P6SM SCT250
     FM232300 VRB06KT P6SM FEW250
     FM240300 VRB05KT P6SM FEW250 WS015/04025KT
     FM241300 VRB04KT P6SM FEW250=



000
FTUS46 KSGX 231700
TAFCRQ
TAF
KCRQ 231720Z 2318/2418 VRB04KT P6SM BKN250
     FM232100 26007KT P6SM SCT250
     FM240000 VRB04KT P6SM FEW250=



000
FTUS46 KSGX 231500 AAA
TAFSAN
TAF AMD
KSAN 231507Z 2315/2418 VRB05KT P6SM FEW017 SCT250
     FM232000 30009KT P6SM SCT250
     FM240100 VRB04KT P6SM FEW250=



000
FTUS46 KSGX 231100
TAFSNA
TAF
KSNA 231127Z 2312/2412 VRB03KT P6SM SCT018
     FM231300 VRB04KT P6SM FEW018 SCT250 WS015/03030KT
     FM231600 05015G25KT P6SM SCT250
     FM231900 05010G20KT P6SM SCT250
     FM232300 05007KT P6SM FEW250
     FM240600 VRB05KT P6SM FEW250=



000
FTUS46 KSGX 231100
TAFCRQ
TAF
KCRQ 231127Z 2312/2412 VRB03KT P6SM FEW018 SCT250
     FM232100 28007KT P6SM SCT250
     FM240000 VRB04KT P6SM FEW250=



000
FTUS46 KSGX 231100
TAFONT
TAF
KONT 231127Z 2312/2418 VRB03KT 6SM BR FEW017 SCT250
     FM231300 03005KT P6SM SCT250 WS015/03030KT
     FM231600 04020G30KT P6SM SCT200
     FM232100 04010G20KT P6SM SCT200
     FM240000 05005KT P6SM SCT200=



000
FTUS46 KSGX 231100
TAFTRM
TAF
KTRM 231127Z 2312/2412 VRB05KT P6SM SCT250
     FM231500 32011KT P6SM SCT250
     FM231900 01010G20KT P6SM FEW250
     FM240000 VRB06KT P6SM FEW250=



000
FTUS46 KSGX 231100
TAFSAN
TAF
KSAN 231127Z 2312/2418 VRB03KT P6SM FEW017 SCT250
     FM232100 30007KT P6SM SCT250
     FM240100 VRB04KT P6SM FEW250=



000
FTUS46 KSGX 231100
TAFPSP
TAF
KPSP 231127Z 2312/2412 VRB05KT P6SM SCT250
     FM231500 33010KT P6SM SCT250
     FM231900 35012G20KT P6SM FEW250
     FM232300 VRB06KT P6SM FEW250=



000
FTUS46 KSGX 230700 AAA
TAFSNA
TAF AMD
KSNA 230709Z 2307/2406 VRB03KT P6SM FEW015 BKN250
      TEMPO 2309/2312 BKN015
     FM231300 VRB04KT P6SM SCT250 WS015/03030KT
     FM231600 05015G25KT P6SM SCT250
     FM231900 05010G20KT P6SM SCT250
     FM232300 05007KT P6SM SCT250=



000
FTUS46 KSGX 230700 AAA
TAFCRQ
TAF AMD
KCRQ 230703Z 2307/2406 VRB03KT P6SM FEW014 SCT250
      TEMPO 2308/2312 BKN012
     FM232000 28007KT P6SM SCT250
     FM240100 VRB04KT P6SM FEW250=



000
FTUS46 KSGX 230700 AAA
TAFSAN
TAF AMD
KSAN 230701Z 2307/2412 VRB03KT P6SM SCT017 SCT250
      TEMPO 2308/2312 BKN015
     FM231900 30010G17KT P6SM SCT250
     FM240200 VRB03KT P6SM SCT250=



000
FTUS46 KSGX 230600 AAA
TAFONT
TAF AMD
KONT 230640Z 2307/2412 VRB03KT P6SM FEW030 BKN150
      TEMPO 2309/2312 BKN012
     FM231300 03005KT P6SM SCT200 WS015/03030KT
     FM231600 04020G30KT P6SM SCT200
     FM232100 04010G20KT P6SM SCT200
     FM240300 05005KT P6SM SCT200=



000
FTUS46 KSGX 230500
TAFONT
TAF
KONT 230520Z 2306/2412 VRB04KT P6SM SCT020 SCT200
     FM230700 VRB04KT P6SM BKN010
     FM231300 03007KT P6SM FEW010 SCT200 WS010/03035KT
     FM231600 04018G33KT P6SM SCT200
     FM232100 04010G20KT P6SM SCT200
     FM240300 05005KT P6SM SCT200=



000
FTUS46 KSGX 230500
TAFSAN
TAF
KSAN 230520Z 2306/2412 VRB03KT P6SM BKN015
     FM231500 VRB03KT P6SM FEW016 SCT250
     FM231900 30010G17KT P6SM SCT250
     FM240200 VRB03KT P6SM SCT250=



000
FTUS46 KSGX 230500
TAFSNA
TAF
KSNA 230520Z 2306/2406 VRB03KT P6SM FEW020 SCT250
     FM230800 VRB03KT P6SM BKN013
     FM231400 06005KT P6SM FEW015 SCT250 WS013/03025KT
     FM231800 06015G25KT P6SM SCT250
     FM232300 VRB05KT P6SM SCT250=



000
FTUS46 KSGX 230500
TAFTRM
TAF
KTRM 230520Z 2306/2406 32008KT P6SM SCT200
     FM231900 32013G25KT P6SM SCT200
     FM232300 33008KT P6SM SCT200=



000
FTUS46 KSGX 230500
TAFCRQ
TAF
KCRQ 230520Z 2306/2406 VRB03KT P6SM BKN014
     FM231500 VRB03KT P6SM FEW014 SCT250
     FM232000 28008KT P6SM FEW014 SCT250=



000
FTUS46 KSGX 230500
TAFPSP
TAF
KPSP 230520Z 2306/2406 11008KT P6SM SKC
     FM231700 36015G22KT P6SM SCT200
     FM232200 01007KT P6SM SCT200=



000
FTUS46 KSGX 230400 AAB
TAFCRQ
TAF AMD
KCRQ 230422Z 2304/2324 VRB03KT P6SM SCT011
     FM231500 VRB03KT P6SM FEW014 SCT250=



000
FTUS46 KSGX 230300 AAA
TAFSAN
TAF AMD
KSAN 230309Z 2303/2406 VRB04KT P6SM FEW015 SCT250
     FM230400 VRB03KT P6SM BKN014
     FM231500 VRB03KT P6SM FEW016 SCT250
     FM231900 30010KT P6SM SCT250
     FM240200 VRB04KT P6SM SCT250=



000
FTUS46 KSGX 230300 AAA
TAFCRQ
TAF AMD
KCRQ 230305Z 2303/2324 VRB03KT P6SM BKN011
     FM231500 VRB03KT P6SM FEW014 SCT250=



000
FTUS46 KSGX 222300
TAFONT
TAF
KONT 222337Z 2300/2406 VRB04KT P6SM SCT020 SCT200
     FM230700 VRB04KT P6SM BKN010
     FM231300 VRB04KT P6SM FEW010 SCT200 WS010/03030KT
     FM231500 04018G30KT P6SM SCT200
     FM232200 04010G20KT P6SM SCT200=



000
FTUS46 KSGX 222300
TAFPSP
TAF
KPSP 222337Z 2300/2324 11008KT P6SM SKC
     FM231500 36010G20KT P6SM SCT200=



000
FTUS46 KSGX 222300
TAFSNA
TAF
KSNA 222337Z 2300/2324 22007KT P6SM FEW050 SCT220 BKN250
     FM230300 VRB03KT P6SM FEW020 SCT250
     FM230700 VRB03KT P6SM BKN013
     FM231400 VRB03KT P6SM FEW015 SCT250 WS013/03025KT
     FM231700 06015G25KT P6SM SCT250=



000
FTUS46 KSGX 222300
TAFSAN
TAF
KSAN 222337Z 2300/2406 22008KT P6SM FEW015 BKN250
     FM230300 VRB04KT P6SM FEW015 SCT250
     FM230600 VRB03KT P6SM BKN013
     FM231500 VRB03KT P6SM FEW016 SCT250
     FM231900 30010KT P6SM SCT250=



000
FTUS46 KSGX 222300
TAFTRM
TAF
KTRM 222337Z 2300/2324 15006KT P6SM SKC
     FM230900 32010KT P6SM SCT200=



000
FTUS46 KSGX 222300
TAFCRQ
TAF
KCRQ 222337Z 2300/2324 25006KT P6SM SKC
     FM230300 VRB03KT P6SM FEW013 SCT250
     FM230500 VRB03KT P6SM BKN011
     FM231500 VRB03KT P6SM FEW014 SCT250=



000
FTUS46 KSGX 222100 AAA
TAFSAN
TAF AMD
KSAN 222102Z 2221/2324 29007KT P6SM SCT250
     FM230200 VRB04KT P6SM FEW015 SCT250
     FM230600 VRB03KT P6SM BKN013
     FM231500 VRB03KT P6SM FEW016 SCT250
     FM231900 30010KT P6SM SCT250=



000
FTUS46 KSGX 221700
TAFPSP
TAF
KPSP 221720Z 2218/2318 VRB06KT P6SM SCT200
     FM231500 36010G20KT P6SM SCT200=



000
FTUS46 KSGX 221700
TAFTRM
TAF
KTRM 221720Z 2218/2318 VRB05KT P6SM SCT200
     FM222100 14008KT P6SM SCT200
     FM230000 VRB06KT P6SM SCT200
     FM230900 32010KT P6SM SCT200=



000
FTUS46 KSGX 221700
TAFSAN
TAF
KSAN 221720Z 2218/2324 VRB05KT P6SM SCT250
     FM222000 27007KT P6SM SCT250
     FM230200 VRB04KT P6SM FEW015 SCT250
     FM230600 VRB03KT P6SM BKN013
     FM231500 VRB03KT P6SM FEW016 SCT250
     FM231900 30010KT P6SM SCT250=



000
FTUS46 KSGX 221700
TAFSNA
TAF
KSNA 221720Z 2218/2318 VRB05KT P6SM SCT250
     FM222100 22008KT P6SM SCT250
     FM230100 VRB03KT P6SM FEW020 SCT250
     FM230700 VRB03KT P6SM BKN013
     FM231400 VRB03KT P6SM FEW015 SCT250 WS013/03025KT
     FM231700 06015G25KT P6SM SCT250=



000
FTUS46 KSGX 221700
TAFCRQ
TAF
KCRQ 221720Z 2218/2318 VRB05KT P6SM SCT250
     FM222000 25007KT P6SM SCT250
     FM230100 VRB03KT P6SM FEW013 SCT250
     FM230500 VRB03KT P6SM BKN011
     FM231500 VRB03KT P6SM FEW014 SCT250=



000
FTUS46 KSGX 221700
TAFONT
TAF
KONT 221720Z 2218/2324 VRB05KT P6SM SCT200
     FM222100 26009KT P6SM SCT200
     FM230300 VRB04KT P6SM SCT020 SCT200
     FM230700 VRB04KT P6SM BKN010
     FM231300 VRB04KT P6SM FEW010 SCT200 WS010/03030KT
     FM231500 04018G30KT P6SM SCT200
     FM232200 04010G20KT P6SM SCT200=



000
FTUS46 KSGX 221500 AAA
TAFSAN
TAF AMD
KSAN 221513Z 2215/2318 VRB04KT P6SM FEW250
     FM222000 27007KT P6SM SCT250
     FM230100 VRB04KT P6SM FEW020 SCT250
     FM230600 VRB03KT P6SM BKN018
     FM231500 VRB03KT P6SM SCT020 SCT250=



000
FTUS46 KSGX 221100
TAFCRQ
TAF
KCRQ 221127Z 2212/2312 VRB04KT P6SM FEW250
     FM222000 24007KT P6SM SCT250
     FM230100 VRB03KT P6SM FEW018 SCT250
     FM230400 VRB03KT P6SM BKN015=



000
FTUS46 KSGX 221100
TAFPSP
TAF
KPSP 221127Z 2212/2312 VRB05KT P6SM FEW250
     FM231000 34007KT P6SM SCT250=



000
FTUS46 KSGX 221100
TAFSAN
TAF
KSAN 221127Z 2212/2318 VRB03KT P6SM FEW250
     FM222000 26008KT P6SM SCT250
     FM230100 VRB04KT P6SM FEW020 SCT250
     FM230500 VRB03KT P6SM BKN018
     FM231400 VRB03KT P6SM SCT020 SCT250=



000
FTUS46 KSGX 221100
TAFSNA
TAF
KSNA 221127Z 2212/2312 VRB03KT P6SM FEW250
     FM222100 22007KT P6SM SCT250
     FM230100 VRB03KT P6SM FEW020 SCT250
     FM230700 VRB03KT P6SM BKN017=



000
FTUS46 KSGX 221100
TAFONT
TAF
KONT 221127Z 2212/2318 VRB04KT P6SM FEW250
     FM222100 26009KT P6SM SCT250
     FM230300 VRB04KT P6SM SCT020 SCT250
     FM231300 VRB04KT P6SM SCT250 WS015/04025KT
     FM231500 04018G28KT P6SM SCT250=



000
FTUS46 KSGX 221100
TAFTRM
TAF
KTRM 221127Z 2212/2312 VRB06KT P6SM FEW100
     FM230900 32010KT P6SM SCT250=



000
FTUS46 KSGX 221000 AAA
TAFSAN
TAF AMD
KSAN 221005Z 2210/2312 VRB03KT P6SM FEW250
     FM222000 26008KT P6SM SCT250
     FM230300 VRB03KT P6SM BKN015 BKN250=



000
FTUS46 KSGX 220500
TAFSAN
TAF
KSAN 220521Z 2206/2312 VRB02KT P6SM SKC
     FM222000 25008KT P6SM FEW250
     FM230300 VRB03KT P6SM BKN015 BKN250=



000
FTUS46 KSGX 220500
TAFPSP
TAF
KPSP 220521Z 2206/2306 31004KT P6SM SKC
     FM222000 13005KT P6SM SCT250=



000
FTUS46 KSGX 220500
TAFCRQ
TAF
KCRQ 220521Z 2206/2306 VRB02KT P6SM SKC
     FM222000 24007KT P6SM SCT250
     FM230200 VRB03KT P6SM BKN012 BKN250=



000
FTUS46 KSGX 220500
TAFONT
TAF
KONT 220521Z 2206/2312 VRB02KT P6SM SKC
     FM222100 26010KT P6SM SKC
     FM230500 27006KT P6SM SCT030 BKN250=



000
FTUS46 KSGX 220500
TAFTRM
TAF
KTRM 220521Z 2206/2306 32006KT P6SM FEW100
     FM222100 14006KT P6SM SCT250=



000
FTUS46 KSGX 220500
TAFSNA
TAF
KSNA 220521Z 2206/2306 VRB02KT P6SM SKC
     FM222100 21010G17KT P6SM SCT250
     FM230300 VRB02KT P6SM BKN015 BKN250=



000
FTUS46 KSGX 220300 AAA
TAFSAN
TAF AMD
KSAN 220319Z 2203/2306 33003KT P6SM FEW030 FEW250
     FM222000 25008KT P6SM FEW250
     FM230300 VRB03KT P6SM SCT015 SCT250=



000
FTUS46 KSGX 212300
TAFSAN
TAF
KSAN 212328Z 2200/2306 29009KT P6SM FEW035
     FM220300 33003KT P6SM FEW030 SCT250
     FM222000 25008KT P6SM FEW250
     FM230300 VRB03KT P6SM SCT015 SCT250=



000
FTUS46 KSGX 212300
TAFSNA
TAF
KSNA 212328Z 2200/2224 25007KT P6SM FEW040 SCT250
     FM220200 VRB03KT P6SM FEW020 SCT250
     FM222100 21009KT P6SM SCT250=



000
FTUS46 KSGX 212300
TAFTRM
TAF
KTRM 212328Z 2200/2224 32006KT P6SM FEW100=



000
FTUS46 KSGX 212300
TAFCRQ
TAF
KCRQ 212328Z 2200/2224 VRB03KT P6SM FEW025 SCT250
     FM222000 24007KT P6SM FEW025 SCT250=



000
FTUS46 KSGX 212300
TAFONT
TAF
KONT 212328Z 2200/2306 26010KT P6SM SCT035 SCT250
     FM220300 VRB04KT P6SM SCT250
     FM222100 25010KT P6SM SKC
     FM230300 VRB04KT P6SM SCT250=



000
FTUS46 KSGX 212300
TAFPSP
TAF
KPSP 212328Z 2200/2224 32004KT P6SM SKC=



000
FTUS46 KSGX 212000 AAA
TAFSAN
TAF AMD
KSAN 212056Z 2121/2224 30009KT P6SM FEW035
     FM220200 VRB04KT P6SM FEW030 SCT250
     FM222000 27008KT P6SM FEW250=



000
FTUS46 KSGX 211700
TAFCRQ
TAF
KCRQ 211721Z 2118/2218 VRB03KT P6SM FEW035
     FM211900 27007KT P6SM SCT040 SCT250
     FM220100 VRB03KT P6SM FEW025 SCT250=



000
FTUS46 KSGX 211700
TAFPSP
TAF
KPSP 211721Z 2118/2218 VRB06KT P6SM SCT100
     FM220500 VRB04KT P6SM SKC=



000
FTUS46 KSGX 211700
TAFONT
TAF
KONT 211721Z 2118/2224 VRB04KT P6SM SCT025 BKN150
     FM212000 26010KT P6SM SCT035 SCT250
     FM220300 VRB04KT P6SM SCT250
     FM222100 25010KT P6SM SKC=



000
FTUS46 KSGX 211700
TAFSNA
TAF
KSNA 211721Z 2118/2218 VRB03KT P6SM SCT030 SCT250
     FM212000 25007KT P6SM FEW040 SCT250
     FM220200 VRB03KT P6SM FEW020 SCT250=



000
FTUS46 KSGX 211700
TAFSAN
TAF
KSAN 211721Z 2118/2224 VRB06KT P6SM FEW035 SCT045
     FM211900 30010KT P6SM FEW045 SCT250
     FM220200 VRB04KT P6SM FEW030 SCT250
     FM222000 27008KT P6SM FEW250=



000
FTUS46 KSGX 211700
TAFTRM
TAF
KTRM 211721Z 2118/2218 VRB06KT P6SM SCT100=



000
FTUS46 KSGX 211500 AAA
TAFSAN
TAF AMD
KSAN 211512Z 2115/2218 30006KT P6SM SCT025 SCT040 BKN070
     FM211900 29009KT P6SM SCT040 SCT250
     FM220100 VRB04KT P6SM SCT250=



    US Dept of Commerce
    National Oceanic and Atmospheric Administration
    National Weather Service
    1325 East West Highway
    Silver Spring, MD 20910
    Page Author: NWS Internet Services Team
Disclaimer
Information Quality
Credits
Glossary
Privacy Policy
Freedom of Information Act (FOIA)
About Us
Career Opportunities